createdAt,value
2018-12-12T00:01:47.189Z,6.40
2018-12-12T00:04:17.494Z,6.33
2018-12-12T00:06:47.360Z,6.57
2018-12-12T00:09:17.248Z,7.20
2018-12-12T00:11:47.054Z,6.63
2018-12-12T00:14:17.005Z,6.50
2018-12-12T00:16:46.858Z,6.93
2018-12-12T00:19:16.835Z,6.70
2018-12-12T00:21:46.846Z,7.00
2018-12-12T00:24:16.689Z,6.83
2018-12-12T00:26:46.680Z,6.93
2018-12-12T00:29:16.558Z,5.93
2018-12-12T00:31:46.399Z,6.07
2018-12-12T00:34:16.213Z,5.63
2018-12-12T00:36:46.050Z,5.73
2018-12-12T00:39:15.976Z,5.57
2018-12-12T00:41:45.791Z,5.67
2018-12-12T00:44:15.577Z,5.27
2018-12-12T00:46:45.936Z,5.17
2018-12-12T00:49:16.233Z,5.03
2018-12-12T00:52:20.846Z,5.00
2018-12-12T00:54:51.063Z,5.37
2018-12-12T00:57:22.296Z,4.87
2018-12-12T00:59:52.187Z,5.40
2018-12-12T01:02:22.164Z,5.03
2018-12-12T01:04:51.956Z,4.53
2018-12-12T01:07:21.767Z,4.80
2018-12-12T01:09:51.524Z,4.17
2018-12-12T01:12:21.346Z,4.40
2018-12-12T01:14:51.325Z,4.40
2018-12-12T01:17:21.768Z,4.80
2018-12-12T01:19:51.717Z,4.90
2018-12-12T01:22:21.557Z,4.00
2018-12-12T01:24:51.387Z,4.10
2018-12-12T01:34:33.735Z,4.70
2018-12-12T01:37:03.928Z,4.83
2018-12-12T01:39:33.821Z,4.13
2018-12-12T01:42:03.641Z,4.30
2018-12-12T01:44:33.416Z,4.40
2018-12-12T01:47:03.335Z,4.70
2018-12-12T01:49:33.119Z,5.13
2018-12-12T01:52:02.931Z,5.43
2018-12-12T01:54:32.808Z,5.07
2018-12-12T01:57:02.741Z,5.27
2018-12-12T01:59:32.579Z,5.77
2018-12-12T02:02:02.404Z,5.17
2018-12-12T02:04:32.193Z,5.40
2018-12-12T02:07:01.975Z,5.40
2018-12-12T02:09:31.984Z,5.17
2018-12-12T02:12:01.814Z,4.80
2018-12-12T02:14:31.596Z,5.17
2018-12-12T02:17:01.538Z,4.80
2018-12-12T02:19:31.340Z,5.03
2018-12-12T02:22:01.694Z,4.90
2018-12-12T02:24:31.482Z,4.77
2018-12-12T02:27:01.300Z,4.67
2018-12-12T02:29:31.161Z,4.80
2018-12-12T02:32:00.995Z,5.07
2018-12-12T02:35:19.342Z,4.87
2018-12-12T02:37:49.196Z,4.43
2018-12-12T02:40:19.311Z,4.67
2018-12-12T02:42:49.144Z,5.03
2018-12-12T02:45:18.983Z,4.47
2018-12-12T02:51:24.901Z,4.03
2018-12-12T02:53:54.802Z,4.43
2018-12-12T02:56:24.815Z,4.10
2018-12-12T02:58:54.592Z,4.53
2018-12-12T03:01:24.406Z,4.17
2018-12-12T03:03:54.355Z,4.17
2018-12-12T03:06:24.163Z,4.30
2018-12-12T03:08:54.067Z,4.80
2018-12-12T03:11:25.151Z,4.47
2018-12-12T03:13:55.827Z,4.33
2018-12-12T03:16:25.795Z,4.67
2018-12-12T03:18:55.922Z,4.73
2018-12-12T03:21:25.750Z,4.77
2018-12-12T03:23:55.578Z,4.27
2018-12-12T03:26:25.364Z,4.67
2018-12-12T03:28:55.420Z,5.13
2018-12-12T03:31:25.202Z,4.83
2018-12-12T03:33:54.962Z,4.60
2018-12-12T03:36:24.758Z,4.40
2018-12-12T03:38:54.512Z,3.90
2018-12-12T03:41:24.371Z,5.00
2018-12-12T03:43:54.186Z,4.60
2018-12-12T03:46:24.002Z,4.30
2018-12-12T03:48:54.154Z,4.50
2018-12-12T03:51:24.035Z,4.93
2018-12-12T03:53:54.176Z,5.00
2018-12-12T03:56:24.004Z,4.87
2018-12-12T03:58:53.725Z,6.10
2018-12-12T04:01:23.575Z,5.60
2018-12-12T04:03:53.437Z,5.80
2018-12-12T04:06:23.390Z,6.20
2018-12-12T04:08:53.893Z,6.00
2018-12-12T04:11:23.692Z,5.40
2018-12-12T04:13:53.495Z,5.90
2018-12-12T04:16:23.276Z,5.33
2018-12-12T04:18:53.764Z,5.60
2018-12-12T04:21:23.950Z,5.17
2018-12-12T04:23:54.532Z,5.07
2018-12-12T04:26:24.331Z,5.33
2018-12-12T04:28:54.173Z,5.27
2018-12-12T04:31:23.982Z,5.20
2018-12-12T04:33:53.803Z,4.60
2018-12-12T04:36:23.599Z,5.03
2018-12-12T04:38:53.398Z,4.87
2018-12-12T04:42:17.856Z,5.43
2018-12-12T04:44:47.730Z,5.17
2018-12-12T04:47:17.580Z,6.30
2018-12-12T04:49:47.398Z,5.43
2018-12-12T04:52:17.280Z,5.73
2018-12-12T04:58:23.212Z,6.03
2018-12-12T05:00:53.069Z,6.90
2018-12-12T05:03:22.928Z,7.77
2018-12-12T05:05:53.145Z,6.70
2018-12-12T05:08:23.054Z,6.23
2018-12-12T05:18:05.169Z,5.60
2018-12-12T05:20:34.992Z,5.20
2018-12-12T05:23:04.837Z,5.30
2018-12-12T05:25:35.336Z,5.40
2018-12-12T05:28:05.554Z,6.30
2018-12-12T05:34:11.324Z,7.23
2018-12-12T05:36:41.371Z,6.67
2018-12-12T05:39:11.979Z,6.50
2018-12-12T05:41:41.916Z,6.63
2018-12-12T05:44:11.725Z,6.80
2018-12-12T05:50:17.522Z,6.83
2018-12-12T05:52:47.304Z,6.10
2018-12-12T05:55:17.188Z,6.67
2018-12-12T05:57:46.968Z,6.33
2018-12-12T06:00:16.754Z,6.10
2018-12-12T06:02:46.513Z,6.13
2018-12-12T06:05:16.294Z,6.53
2018-12-12T06:07:46.129Z,6.00
2018-12-12T06:10:15.960Z,5.70
2018-12-12T06:12:45.981Z,5.60
2018-12-12T06:15:15.891Z,5.50
2018-12-12T06:17:45.746Z,5.97
2018-12-12T06:20:15.941Z,6.37
2018-12-12T06:22:46.133Z,6.30
2018-12-12T06:25:16.185Z,6.07
2018-12-12T06:27:46.238Z,7.23
2018-12-12T06:30:16.130Z,5.73
2018-12-12T06:32:46.009Z,7.33
2018-12-12T06:35:15.869Z,8.03
2018-12-12T06:37:46.695Z,9.33
2018-12-12T06:40:18.110Z,10.47
2018-12-12T06:42:47.951Z,11.10
2018-12-12T06:45:17.849Z,11.87
2018-12-12T06:47:47.790Z,12.83
2018-12-12T06:50:17.698Z,14.67
2018-12-12T06:52:47.509Z,11.00
2018-12-12T06:55:18.135Z,11.87
2018-12-12T06:57:48.005Z,12.90
2018-12-12T07:00:17.874Z,14.07
2018-12-12T07:06:24.500Z,16.40
2018-12-12T07:08:54.323Z,20.20
2018-12-12T07:11:24.198Z,17.03
2018-12-12T07:13:54.041Z,18.87
2018-12-12T07:16:23.789Z,19.13
2018-12-12T07:18:54.307Z,19.40
2018-12-12T07:21:24.441Z,17.33
2018-12-12T07:23:54.376Z,18.20
2018-12-12T07:26:24.589Z,18.87
2018-12-12T07:28:54.445Z,18.63
2018-12-12T07:31:24.449Z,21.73
2018-12-12T07:34:00.677Z,19.50
2018-12-12T07:36:27.553Z,20.03
2018-12-12T07:38:57.367Z,22.03
2018-12-12T07:41:27.551Z,20.80
2018-12-12T07:43:57.501Z,21.57
2018-12-12T07:46:27.876Z,20.67
2018-12-12T07:48:58.054Z,20.87
2018-12-12T07:51:27.934Z,23.03
2018-12-12T07:53:57.701Z,23.67
2018-12-12T08:00:03.905Z,21.43
2018-12-12T08:02:33.807Z,22.43
2018-12-12T08:05:04.813Z,21.83
2018-12-12T08:07:34.641Z,21.07
2018-12-12T08:10:05.162Z,23.10
2018-12-12T08:12:35.242Z,22.63
2018-12-12T08:15:06.201Z,22.40
2018-12-12T08:17:36.094Z,22.80
2018-12-12T08:20:07.471Z,23.67
2018-12-12T08:22:37.346Z,23.27
2018-12-12T08:25:07.819Z,22.40
2018-12-12T08:27:39.281Z,23.07
2018-12-12T08:30:10.403Z,23.90
2018-12-12T08:32:40.275Z,24.13
2018-12-12T08:35:10.354Z,23.97
2018-12-12T08:38:19.947Z,24.90
2018-12-12T08:40:49.804Z,24.60
2018-12-12T08:43:19.720Z,23.57
2018-12-12T08:45:49.565Z,26.30
2018-12-12T08:48:19.478Z,26.27
2018-12-12T08:50:50.194Z,27.60
2018-12-12T08:53:20.010Z,26.00
2018-12-12T08:55:50.141Z,24.97
2018-12-12T08:58:19.979Z,25.03
2018-12-12T09:00:49.815Z,25.20
2018-12-12T09:03:19.629Z,25.37
2018-12-12T09:05:49.862Z,23.73
2018-12-12T09:08:19.668Z,22.00
2018-12-12T09:10:50.305Z,22.77
2018-12-12T09:13:20.261Z,21.47
2018-12-12T09:15:50.170Z,23.27
2018-12-12T09:18:20.017Z,23.07
2018-12-12T09:20:49.827Z,22.07
2018-12-12T09:23:20.013Z,21.10
2018-12-12T09:25:49.886Z,22.57
2018-12-12T09:28:20.548Z,21.17
2018-12-12T09:30:50.365Z,20.50
2018-12-12T09:33:24.538Z,20.97
2018-12-12T09:35:52.061Z,19.43
2018-12-12T09:38:22.456Z,19.23
2018-12-12T09:40:52.716Z,19.03
2018-12-12T09:43:22.729Z,19.77
2018-12-12T09:45:53.086Z,19.70
2018-12-12T09:48:23.070Z,21.20
2018-12-12T09:50:52.884Z,20.90
2018-12-12T09:53:22.848Z,20.80
2018-12-12T09:59:28.736Z,22.73
2018-12-12T10:01:59.289Z,22.77
2018-12-12T10:04:29.090Z,24.37
2018-12-12T10:06:58.935Z,25.70
2018-12-12T10:09:28.823Z,25.77
2018-12-12T10:11:59.055Z,27.10
2018-12-12T10:14:29.162Z,25.47
2018-12-12T10:16:58.998Z,26.63
2018-12-12T10:19:28.838Z,26.23
2018-12-12T10:21:59.070Z,26.80
2018-12-12T10:24:29.400Z,25.07
2018-12-12T10:26:59.266Z,26.33
2018-12-12T10:29:29.226Z,26.23
2018-12-12T10:31:59.024Z,24.83
2018-12-12T10:34:28.899Z,22.03
2018-12-12T10:36:58.856Z,20.97
2018-12-12T10:39:28.722Z,20.53
2018-12-12T10:41:58.662Z,18.67
2018-12-12T10:44:29.041Z,17.33
2018-12-12T10:46:59.992Z,17.33
2018-12-12T10:49:30.776Z,16.37
2018-12-12T10:52:00.626Z,17.63
2018-12-12T10:54:30.824Z,16.30
2018-12-12T10:57:01.472Z,14.17
2018-12-12T10:59:31.579Z,13.33
2018-12-12T11:02:06.629Z,13.70
2018-12-12T11:04:36.687Z,14.77
2018-12-12T11:07:06.939Z,14.37
2018-12-12T11:09:36.849Z,12.87
2018-12-12T11:12:06.908Z,12.53
2018-12-12T11:14:37.507Z,12.93
2018-12-12T11:17:07.347Z,13.27
2018-12-12T11:19:37.156Z,13.50
2018-12-12T11:22:07.057Z,14.07
2018-12-12T11:24:36.852Z,13.80
2018-12-12T11:27:06.648Z,14.07
2018-12-12T11:29:36.488Z,14.57
2018-12-12T11:32:06.261Z,12.80
2018-12-12T11:34:36.703Z,13.93
2018-12-12T11:37:06.839Z,13.33
2018-12-12T11:39:36.669Z,12.13
2018-12-12T11:42:06.520Z,11.87
2018-12-12T11:44:36.398Z,12.30
2018-12-12T11:47:06.302Z,11.77
2018-12-12T11:49:36.086Z,11.43
2018-12-12T11:52:06.759Z,11.13
2018-12-12T11:54:37.036Z,9.03
2018-12-12T11:57:08.724Z,9.30
2018-12-12T11:59:39.125Z,9.53
2018-12-12T12:02:08.929Z,9.00
2018-12-12T12:04:38.709Z,7.53
2018-12-12T12:07:08.865Z,6.93
2018-12-12T12:09:38.711Z,5.83
2018-12-12T12:12:08.543Z,6.40
2018-12-12T12:14:38.425Z,5.23
2018-12-12T12:17:08.283Z,5.83
2018-12-12T12:19:38.200Z,6.67
2018-12-12T12:22:08.279Z,5.10
2018-12-12T12:24:38.131Z,5.33
2018-12-12T12:27:07.989Z,3.97
2018-12-12T12:29:37.842Z,3.27
2018-12-12T12:32:08.641Z,3.43
2018-12-12T12:34:38.484Z,3.20
2018-12-12T12:37:09.029Z,3.97
2018-12-12T12:39:38.848Z,3.70
2018-12-12T12:42:08.640Z,4.10
2018-12-12T12:44:38.718Z,4.03
2018-12-12T12:47:08.542Z,4.20
2018-12-12T12:49:39.263Z,4.43
2018-12-12T12:52:09.137Z,4.53
2018-12-12T12:54:38.994Z,3.90
2018-12-12T12:57:08.867Z,4.93
2018-12-12T12:59:38.717Z,4.97
2018-12-12T13:02:08.649Z,4.23
2018-12-12T13:04:38.473Z,3.63
2018-12-12T13:07:09.385Z,4.60
2018-12-12T13:09:39.320Z,4.70
2018-12-12T13:12:09.291Z,4.97
2018-12-12T13:14:39.587Z,5.33
2018-12-12T13:17:09.764Z,4.87
2018-12-12T13:19:39.575Z,5.97
2018-12-12T13:22:09.400Z,5.17
2018-12-12T13:24:39.196Z,5.20
2018-12-12T13:27:09.440Z,4.83
2018-12-12T13:29:39.960Z,4.90
2018-12-12T13:32:09.990Z,4.90
2018-12-12T13:34:40.697Z,4.60
2018-12-12T13:37:10.482Z,4.57
2018-12-12T13:39:40.283Z,4.30
2018-12-12T13:42:10.035Z,5.07
2018-12-12T13:44:40.039Z,5.20
2018-12-12T13:47:17.022Z,5.30
2018-12-12T13:49:42.174Z,5.23
2018-12-12T13:52:11.977Z,4.80
2018-12-12T13:54:41.712Z,5.37
2018-12-12T13:57:11.519Z,5.27
2018-12-12T13:59:41.670Z,5.23
2018-12-12T14:02:11.469Z,5.73
2018-12-12T14:04:41.312Z,5.23
2018-12-12T14:07:11.121Z,6.37
2018-12-12T14:09:40.885Z,5.60
2018-12-12T14:12:17.116Z,4.50
2018-12-12T14:14:42.576Z,5.50
2018-12-12T14:17:12.370Z,5.37
2018-12-12T14:19:42.521Z,6.10
2018-12-12T14:22:12.334Z,6.37
2018-12-12T14:24:42.105Z,5.87
2018-12-12T14:30:47.491Z,6.07
2018-12-12T14:33:17.229Z,6.63
2018-12-12T14:35:47.279Z,6.70
2018-12-12T14:38:17.058Z,6.87
2018-12-12T14:40:46.859Z,6.50
2018-12-12T14:43:16.665Z,6.93
2018-12-12T14:45:46.399Z,7.20
2018-12-12T14:48:16.183Z,7.07
2018-12-12T14:50:46.181Z,7.37
2018-12-12T14:53:16.066Z,6.50
2018-12-12T14:55:45.850Z,6.90
2018-12-12T14:58:15.653Z,6.87
2018-12-12T15:00:45.731Z,7.27
2018-12-12T15:03:15.538Z,7.50
2018-12-12T15:06:20.383Z,7.50
2018-12-12T15:08:50.229Z,7.70
2018-12-12T15:11:20.024Z,7.03
2018-12-12T15:13:49.855Z,7.30
2018-12-12T15:16:19.697Z,7.90
2018-12-12T15:18:49.521Z,6.97
2018-12-12T15:21:25.676Z,7.63
2018-12-12T15:23:51.127Z,7.20
2018-12-12T15:26:20.921Z,7.33
2018-12-12T15:28:51.067Z,7.40
2018-12-12T15:31:21.657Z,8.10
2018-12-12T15:33:51.430Z,7.77
2018-12-12T15:36:21.343Z,8.63
2018-12-12T15:38:51.290Z,8.83
2018-12-12T15:41:21.341Z,8.10
2018-12-12T15:43:51.193Z,8.47
2018-12-12T15:46:21.045Z,8.30
2018-12-12T15:48:50.813Z,8.33
2018-12-12T15:51:20.604Z,8.00
2018-12-12T15:53:51.339Z,8.67
2018-12-12T15:56:21.133Z,7.77
2018-12-12T15:58:50.911Z,8.47
2018-12-12T16:01:20.722Z,7.90
2018-12-12T16:03:50.481Z,22.60
2018-12-12T16:06:20.268Z,15.70
2018-12-12T16:08:50.384Z,12.50
2018-12-12T16:11:20.210Z,12.63
2018-12-12T16:13:49.986Z,9.43
2018-12-12T16:16:19.972Z,8.30
2018-12-12T16:18:49.845Z,8.00
2018-12-12T16:21:19.594Z,8.30
2018-12-12T16:23:49.992Z,7.53
2018-12-12T16:26:19.850Z,8.20
2018-12-12T16:33:19.226Z,7.20
2018-12-12T16:35:49.108Z,8.20
2018-12-12T16:38:18.934Z,8.20
2018-12-12T16:40:48.770Z,8.87
2018-12-12T16:43:18.634Z,8.27
2018-12-12T16:45:48.993Z,8.70
2018-12-12T16:48:18.766Z,9.03
2018-12-12T16:50:48.540Z,8.67
2018-12-12T16:53:18.592Z,10.13
2018-12-12T16:55:48.436Z,8.67
2018-12-12T16:58:18.252Z,9.07
2018-12-12T17:00:48.070Z,9.33
2018-12-12T17:03:18.250Z,10.03
2018-12-12T17:05:48.210Z,8.87
2018-12-12T17:08:18.148Z,8.90
2018-12-12T17:10:47.998Z,9.33
2018-12-12T17:13:17.770Z,9.10
2018-12-12T17:15:47.607Z,8.30
2018-12-12T17:18:17.482Z,8.80
2018-12-12T17:20:47.315Z,9.30
2018-12-12T17:23:17.133Z,8.50
2018-12-12T17:25:46.949Z,9.23
2018-12-12T17:28:16.748Z,8.90
2018-12-12T17:34:22.391Z,9.23
2018-12-12T17:36:52.179Z,9.20
2018-12-12T17:39:21.944Z,8.67
2018-12-12T17:41:51.729Z,8.87
2018-12-12T17:44:21.573Z,9.57
2018-12-12T17:46:51.462Z,9.23
2018-12-12T17:49:21.226Z,8.37
2018-12-12T17:51:51.523Z,9.27
2018-12-12T17:54:21.325Z,10.03
2018-12-12T17:56:51.150Z,9.43
2018-12-12T18:02:57.599Z,10.07
2018-12-12T18:05:27.501Z,9.90
2018-12-12T18:07:57.374Z,9.90
2018-12-12T18:10:27.271Z,9.70
2018-12-12T18:12:57.417Z,9.77
2018-12-12T18:15:27.621Z,8.87
2018-12-12T18:17:57.483Z,9.73
2018-12-12T18:20:27.383Z,9.03
2018-12-12T18:22:57.253Z,9.17
2018-12-12T18:25:27.117Z,9.37
2018-12-12T18:31:33.313Z,9.77
2018-12-12T18:34:03.230Z,10.77
2018-12-12T18:36:33.995Z,9.67
2018-12-12T18:39:05.401Z,9.47
2018-12-12T18:41:35.324Z,9.63
2018-12-12T18:47:40.627Z,10.23
2018-12-12T18:50:11.068Z,11.80
2018-12-12T18:52:41.062Z,9.83
2018-12-12T18:55:11.019Z,10.57
2018-12-12T18:57:40.961Z,9.17
2018-12-12T19:00:11.279Z,10.23
2018-12-12T19:02:41.121Z,10.80
2018-12-12T19:05:11.607Z,11.57
2018-12-12T19:07:41.442Z,10.90
2018-12-12T19:10:12.071Z,11.20
2018-12-12T19:12:42.120Z,10.17
2018-12-12T19:15:12.119Z,10.67
2018-12-12T19:17:42.169Z,10.30
2018-12-12T19:20:12.191Z,10.50
2018-12-12T19:23:22.126Z,11.33
2018-12-12T19:25:53.115Z,10.83
2018-12-12T19:28:23.142Z,11.23
2018-12-12T19:30:53.146Z,11.70
2018-12-12T19:33:23.184Z,12.53
2018-12-12T19:35:53.639Z,10.60
2018-12-12T19:38:23.580Z,11.57
2018-12-12T19:40:53.473Z,11.27
2018-12-12T19:43:25.174Z,10.80
2018-12-12T19:45:55.380Z,11.87
2018-12-12T19:48:25.409Z,10.23
2018-12-12T19:50:55.282Z,12.10
2018-12-12T19:53:25.149Z,12.43
2018-12-12T19:55:54.974Z,11.73
2018-12-12T19:58:24.788Z,12.80
2018-12-12T20:00:54.756Z,11.90
2018-12-12T20:03:24.691Z,12.77
2018-12-12T20:05:54.623Z,12.33
2018-12-12T20:08:24.543Z,12.73
2018-12-12T20:10:54.839Z,12.53
2018-12-12T20:13:24.763Z,12.63
2018-12-12T20:15:54.789Z,12.70
2018-12-12T20:18:24.653Z,12.10
2018-12-12T20:20:54.658Z,11.40
2018-12-12T20:23:24.703Z,10.83
2018-12-12T20:25:54.757Z,11.13
2018-12-12T20:28:24.886Z,13.20
2018-12-12T20:30:54.860Z,11.60
2018-12-12T20:33:24.920Z,12.13
2018-12-12T20:35:55.085Z,11.23
2018-12-12T20:38:24.900Z,12.17
2018-12-12T20:40:54.738Z,11.93
2018-12-12T20:43:24.616Z,11.80
2018-12-12T20:45:54.474Z,12.60
2018-12-12T20:48:25.284Z,11.17
2018-12-12T20:50:55.134Z,11.87
2018-12-12T20:53:25.112Z,12.13
2018-12-12T20:55:54.978Z,12.27
2018-12-12T20:58:24.900Z,12.33
2018-12-12T21:00:54.804Z,11.93
2018-12-12T21:03:24.630Z,11.47
2018-12-12T21:05:54.850Z,11.77
2018-12-12T21:08:25.471Z,11.17
2018-12-12T21:10:55.421Z,11.60
2018-12-12T21:13:25.333Z,11.10
2018-12-12T21:15:55.216Z,11.10
2018-12-12T21:18:25.473Z,10.60
2018-12-12T21:20:55.564Z,11.33
2018-12-12T21:23:25.688Z,11.27
2018-12-12T21:25:56.150Z,9.93
2018-12-12T21:28:26.416Z,10.73
2018-12-12T21:30:56.394Z,10.70
2018-12-12T21:33:26.421Z,10.60
2018-12-12T21:36:00.801Z,10.93
2018-12-12T21:38:28.282Z,10.47
2018-12-12T21:40:58.084Z,9.97
2018-12-12T21:43:28.236Z,9.63
2018-12-12T21:45:58.164Z,10.13
2018-12-12T21:48:27.994Z,9.70
2018-12-12T21:50:58.346Z,10.53
2018-12-12T21:53:28.387Z,10.57
2018-12-12T21:55:58.502Z,9.80
2018-12-12T21:58:30.164Z,10.23
2018-12-12T22:00:59.928Z,9.53
2018-12-12T22:03:29.752Z,10.17
2018-12-12T22:05:59.477Z,9.70
2018-12-12T22:08:29.329Z,9.97
2018-12-12T22:10:59.142Z,10.40
2018-12-12T22:13:28.950Z,9.93
2018-12-12T22:15:59.565Z,9.60
2018-12-12T22:18:29.486Z,9.40
2018-12-12T22:20:59.414Z,10.60
2018-12-12T22:23:29.200Z,7.30
2018-12-12T22:25:59.064Z,7.13
2018-12-12T22:28:28.970Z,7.53
2018-12-12T22:30:58.739Z,6.73
2018-12-12T22:33:28.692Z,7.27
2018-12-12T22:35:58.536Z,7.03
2018-12-12T22:38:28.316Z,7.40
2018-12-12T22:40:58.227Z,7.13
2018-12-12T22:43:28.058Z,7.30
2018-12-12T22:45:57.866Z,7.87
2018-12-12T22:48:28.536Z,8.10
2018-12-12T22:50:58.330Z,8.63
2018-12-12T22:53:28.190Z,7.73
2018-12-12T22:55:58.132Z,7.60
2018-12-12T22:58:28.437Z,7.90
2018-12-12T23:01:07.881Z,7.97
2018-12-12T23:03:38.732Z,7.70
2018-12-12T23:06:09.465Z,7.43
2018-12-12T23:08:39.242Z,7.10
2018-12-12T23:11:09.914Z,7.07
2018-12-12T23:13:39.739Z,6.67
2018-12-12T23:16:10.060Z,7.07
2018-12-12T23:18:39.950Z,6.60
2018-12-12T23:21:09.756Z,7.27
2018-12-12T23:23:39.599Z,8.03
2018-12-12T23:26:09.405Z,6.80
2018-12-12T23:28:39.298Z,7.30
2018-12-12T23:31:09.128Z,6.80
2018-12-12T23:33:38.926Z,7.23
2018-12-12T23:36:08.890Z,7.00
2018-12-12T23:38:38.876Z,6.67
2018-12-12T23:41:10.250Z,6.30
2018-12-12T23:43:40.290Z,6.53
2018-12-12T23:46:10.332Z,6.63
2018-12-12T23:55:51.952Z,5.80
2018-12-12T23:58:21.765Z,7.03
